sensor_id;sensor_type;location;lat;lon;timestamp;pressure;altitude;pressure_sealevel;temperature;humidity
44351;BME280;62766;62.622;17.912;2023-01-28T00:00:24;100790.62;;;-0.32;57.54
44351;BME280;62766;62.622;17.912;2023-01-28T00:02:53;100784.19;;;-0.42;57.87
44351;BME280;62766;62.622;17.912;2023-01-28T00:05:21;100782.62;;;-0.35;57.78
44351;BME280;62766;62.622;17.912;2023-01-28T00:07:50;100781.82;;;-0.41;57.87
44351;BME280;62766;62.622;17.912;2023-01-28T00:10:18;100779.95;;;-0.41;57.96
44351;BME280;62766;62.622;17.912;2023-01-28T00:12:47;100776.91;;;-0.42;57.81
44351;BME280;62766;62.622;17.912;2023-01-28T00:15:15;100778.84;;;-0.30;57.95
44351;BME280;62766;62.622;17.912;2023-01-28T00:17:44;100778.68;;;-0.33;57.84
44351;BME280;62766;62.622;17.912;2023-01-28T00:20:12;100775.76;;;-0.37;57.91
44351;BME280;62766;62.622;17.912;2023-01-28T00:22:45;100772.28;;;-0.31;57.80
44351;BME280;62766;62.622;17.912;2023-01-28T00:25:14;100761.44;;;-0.22;57.49
44351;BME280;62766;62.622;17.912;2023-01-28T00:27:43;100752.09;;;-0.24;57.08
44351;BME280;62766;62.622;17.912;2023-01-28T00:30:12;100745.96;;;-0.08;56.88
44351;BME280;62766;62.622;17.912;2023-01-28T00:32:43;100745.51;;;-0.13;56.72
44351;BME280;62766;62.622;17.912;2023-01-28T00:35:12;100740.80;;;-0.15;56.57
44351;BME280;62766;62.622;17.912;2023-01-28T00:37:40;100731.21;;;-0.11;56.30
44351;BME280;62766;62.622;17.912;2023-01-28T00:40:11;100721.97;;;0.01;56.19
44351;BME280;62766;62.622;17.912;2023-01-28T00:42:39;100714.80;;;0.07;56.10
44351;BME280;62766;62.622;17.912;2023-01-28T00:45:08;100707.21;;;-0.05;56.07
44351;BME280;62766;62.622;17.912;2023-01-28T00:47:36;100696.84;;;0.09;55.99
44351;BME280;62766;62.622;17.912;2023-01-28T00:50:05;100686.95;;;-0.05;55.88
44351;BME280;62766;62.622;17.912;2023-01-28T00:52:34;100680.46;;;-0.09;56.00
44351;BME280;62766;62.622;17.912;2023-01-28T00:55:04;100684.88;;;-0.10;56.15
44351;BME280;62766;62.622;17.912;2023-01-28T00:57:33;100676.20;;;-0.05;56.25
44351;BME280;62766;62.622;17.912;2023-01-28T01:00:04;100673.33;;;-0.11;55.96
44351;BME280;62766;62.622;17.912;2023-01-28T01:02:32;100673.10;;;-0.13;56.05
44351;BME280;62766;62.622;17.912;2023-01-28T01:05:02;100670.96;;;-0.07;56.14
44351;BME280;62766;62.622;17.912;2023-01-28T01:07:30;100676.78;;;-0.12;56.27
44351;BME280;62766;62.622;17.912;2023-01-28T01:09:59;100672.81;;;-0.09;56.39
44351;BME280;62766;62.622;17.912;2023-01-28T01:12:28;100668.24;;;-0.07;56.17
44351;BME280;62766;62.622;17.912;2023-01-28T01:14:56;100658.58;;;-0.08;56.24
44351;BME280;62766;62.622;17.912;2023-01-28T01:17:24;100647.79;;;-0.21;56.24
44351;BME280;62766;62.622;17.912;2023-01-28T01:19:53;100642.19;;;-0.13;56.18
44351;BME280;62766;62.622;17.912;2023-01-28T01:22:22;100632.17;;;-0.14;56.20
44351;BME280;62766;62.622;17.912;2023-01-28T01:24:50;100620.22;;;-0.22;56.30
44351;BME280;62766;62.622;17.912;2023-01-28T01:27:18;100613.45;;;-0.15;56.29
44351;BME280;62766;62.622;17.912;2023-01-28T01:29:47;100605.05;;;-0.25;56.56
44351;BME280;62766;62.622;17.912;2023-01-28T01:32:15;100599.48;;;-0.21;56.66
44351;BME280;62766;62.622;17.912;2023-01-28T01:34:44;100599.84;;;-0.26;56.71
44351;BME280;62766;62.622;17.912;2023-01-28T01:37:12;100594.14;;;-0.26;56.51
44351;BME280;62766;62.622;17.912;2023-01-28T01:39:41;100588.28;;;-0.30;56.45
44351;BME280;62766;62.622;17.912;2023-01-28T01:42:10;100580.88;;;-0.15;56.40
44351;BME280;62766;62.622;17.912;2023-01-28T01:44:57;100588.19;;;-0.29;56.28
44351;BME280;62766;62.622;17.912;2023-01-28T01:47:32;100578.96;;;-0.25;56.45
44351;BME280;62766;62.622;17.912;2023-01-28T01:50:08;100577.77;;;-0.24;56.53
44351;BME280;62766;62.622;17.912;2023-01-28T01:52:40;100581.27;;;-0.24;56.41
44351;BME280;62766;62.622;17.912;2023-01-28T01:55:13;100582.17;;;-0.21;56.12
44351;BME280;62766;62.622;17.912;2023-01-28T01:57:46;100582.32;;;-0.20;55.85
44351;BME280;62766;62.622;17.912;2023-01-28T02:00:18;100588.40;;;-0.21;55.81
44351;BME280;62766;62.622;17.912;2023-01-28T02:02:47;100578.30;;;-0.20;55.48
44351;BME280;62766;62.622;17.912;2023-01-28T02:05:18;100566.02;;;-0.18;55.24
44351;BME280;62766;62.622;17.912;2023-01-28T02:07:49;100562.22;;;-0.17;55.28
44351;BME280;62766;62.622;17.912;2023-01-28T02:10:18;100552.05;;;0.02;55.21
44351;BME280;62766;62.622;17.912;2023-01-28T02:12:51;100550.95;;;0.10;55.04
44351;BME280;62766;62.622;17.912;2023-01-28T02:15:22;100558.87;;;-0.00;54.53
44351;BME280;62766;62.622;17.912;2023-01-28T02:17:52;100568.40;;;0.07;54.21
44351;BME280;62766;62.622;17.912;2023-01-28T02:20:26;100558.27;;;0.13;53.98
44351;BME280;62766;62.622;17.912;2023-01-28T02:23:20;100561.95;;;0.00;53.86
44351;BME280;62766;62.622;17.912;2023-01-28T02:26:05;100545.28;;;-0.00;53.51
44351;BME280;62766;62.622;17.912;2023-01-28T02:28:43;100541.62;;;0.03;53.24
44351;BME280;62766;62.622;17.912;2023-01-28T02:31:14;100529.38;;;-0.06;53.26
44351;BME280;62766;62.622;17.912;2023-01-28T02:33:51;100525.67;;;0.04;52.84
44351;BME280;62766;62.622;17.912;2023-01-28T02:36:29;100528.06;;;-0.10;52.52
44351;BME280;62766;62.622;17.912;2023-01-28T02:39:07;100532.41;;;-0.20;52.73
44351;BME280;62766;62.622;17.912;2023-01-28T02:41:40;100524.71;;;-0.25;52.77
44351;BME280;62766;62.622;17.912;2023-01-28T02:44:12;100523.77;;;-0.22;53.08
44351;BME280;62766;62.622;17.912;2023-01-28T02:46:40;100524.98;;;-0.27;52.42
44351;BME280;62766;62.622;17.912;2023-01-28T02:49:11;100515.80;;;-0.28;52.49
44351;BME280;62766;62.622;17.912;2023-01-28T02:51:52;100520.23;;;-0.19;51.77
44351;BME280;62766;62.622;17.912;2023-01-28T02:54:33;100511.35;;;-0.30;51.69
44351;BME280;62766;62.622;17.912;2023-01-28T02:57:11;100500.02;;;-0.33;51.86
44351;BME280;62766;62.622;17.912;2023-01-28T02:59:48;100504.31;;;-0.41;51.74
44351;BME280;62766;62.622;17.912;2023-01-28T03:02:28;100503.29;;;-0.43;51.66
44351;BME280;62766;62.622;17.912;2023-01-28T03:05:03;100502.20;;;-0.28;51.69
44351;BME280;62766;62.622;17.912;2023-01-28T03:07:35;100509.57;;;-0.45;51.67
44351;BME280;62766;62.622;17.912;2023-01-28T03:10:09;100499.97;;;-0.32;51.50
44351;BME280;62766;62.622;17.912;2023-01-28T03:12:41;100496.97;;;-0.30;51.37
44351;BME280;62766;62.622;17.912;2023-01-28T03:15:14;100508.64;;;-0.32;51.33
44351;BME280;62766;62.622;17.912;2023-01-28T03:17:46;100505.25;;;-0.37;51.40
44351;BME280;62766;62.622;17.912;2023-01-28T03:20:19;100493.60;;;-0.38;51.21
44351;BME280;62766;62.622;17.912;2023-01-28T03:22:51;100492.52;;;-0.39;50.98
44351;BME280;62766;62.622;17.912;2023-01-28T03:25:21;100494.20;;;-0.35;51.09
44351;BME280;62766;62.622;17.912;2023-01-28T03:27:55;100495.37;;;-0.32;51.00
44351;BME280;62766;62.622;17.912;2023-01-28T03:30:32;100499.88;;;-0.36;50.61
44351;BME280;62766;62.622;17.912;2023-01-28T03:33:03;100481.66;;;-0.27;50.78
44351;BME280;62766;62.622;17.912;2023-01-28T03:35:34;100486.09;;;-0.30;50.78
44351;BME280;62766;62.622;17.912;2023-01-28T03:38:03;100489.41;;;-0.22;50.55
44351;BME280;62766;62.622;17.912;2023-01-28T03:40:33;100488.71;;;-0.30;50.66
44351;BME280;62766;62.622;17.912;2023-01-28T03:43:01;100487.08;;;-0.20;50.44
44351;BME280;62766;62.622;17.912;2023-01-28T03:45:30;100494.14;;;-0.31;50.60
44351;BME280;62766;62.622;17.912;2023-01-28T03:47:58;100491.50;;;-0.37;50.65
44351;BME280;62766;62.622;17.912;2023-01-28T03:50:27;100509.66;;;-0.42;50.76
44351;BME280;62766;62.622;17.912;2023-01-28T03:52:55;100499.91;;;-0.40;50.99
44351;BME280;62766;62.622;17.912;2023-01-28T03:55:24;100492.23;;;-0.24;51.00
44351;BME280;62766;62.622;17.912;2023-01-28T03:57:52;100488.46;;;-0.38;51.12
44351;BME280;62766;62.622;17.912;2023-01-28T04:00:21;100484.62;;;-0.23;50.92
44351;BME280;62766;62.622;17.912;2023-01-28T04:02:49;100473.93;;;-0.17;50.99
44351;BME280;62766;62.622;17.912;2023-01-28T04:05:18;100471.71;;;-0.10;50.55
44351;BME280;62766;62.622;17.912;2023-01-28T04:07:46;100473.64;;;-0.03;50.73
44351;BME280;62766;62.622;17.912;2023-01-28T04:10:15;100480.99;;;0.01;50.23
44351;BME280;62766;62.622;17.912;2023-01-28T04:12:43;100481.10;;;-0.03;50.28
44351;BME280;62766;62.622;17.912;2023-01-28T04:15:12;100482.50;;;-0.04;50.17
44351;BME280;62766;62.622;17.912;2023-01-28T04:17:43;100466.95;;;-0.03;50.02
44351;BME280;62766;62.622;17.912;2023-01-28T04:20:13;100459.05;;;-0.16;49.76
44351;BME280;62766;62.622;17.912;2023-01-28T04:22:42;100453.58;;;-0.11;50.22
44351;BME280;62766;62.622;17.912;2023-01-28T04:25:12;100434.82;;;0.03;50.15
44351;BME280;62766;62.622;17.912;2023-01-28T04:27:41;100428.67;;;-0.05;50.39
44351;BME280;62766;62.622;17.912;2023-01-28T04:30:11;100428.43;;;0.09;50.37
44351;BME280;62766;62.622;17.912;2023-01-28T04:32:40;100430.69;;;0.07;50.63
44351;BME280;62766;62.622;17.912;2023-01-28T04:35:09;100442.08;;;0.13;50.35
44351;BME280;62766;62.622;17.912;2023-01-28T04:37:37;100448.31;;;0.23;50.28
44351;BME280;62766;62.622;17.912;2023-01-28T04:40:06;100451.90;;;0.22;49.90
44351;BME280;62766;62.622;17.912;2023-01-28T04:42:35;100452.78;;;0.19;49.48
44351;BME280;62766;62.622;17.912;2023-01-28T04:45:05;100452.68;;;0.18;49.57
44351;BME280;62766;62.622;17.912;2023-01-28T04:47:34;100453.83;;;0.16;49.65
44351;BME280;62766;62.622;17.912;2023-01-28T04:50:03;100440.53;;;0.05;49.59
44351;BME280;62766;62.622;17.912;2023-01-28T04:52:31;100434.79;;;0.11;49.72
44351;BME280;62766;62.622;17.912;2023-01-28T04:54:59;100432.62;;;0.21;50.02
44351;BME280;62766;62.622;17.912;2023-01-28T04:57:28;100434.69;;;0.32;50.19
44351;BME280;62766;62.622;17.912;2023-01-28T04:59:56;100438.53;;;0.25;50.41
44351;BME280;62766;62.622;17.912;2023-01-28T05:03:36;100429.92;;;0.14;50.91
44351;BME280;62766;62.622;17.912;2023-01-28T05:06:05;100418.11;;;0.15;51.34
44351;BME280;62766;62.622;17.912;2023-01-28T05:08:33;100399.60;;;0.12;51.84
44351;BME280;62766;62.622;17.912;2023-01-28T05:11:01;100381.73;;;0.23;52.20
44351;BME280;62766;62.622;17.912;2023-01-28T05:13:30;100363.73;;;0.05;52.27
44351;BME280;62766;62.622;17.912;2023-01-28T05:15:58;100365.30;;;0.02;52.34
44351;BME280;62766;62.622;17.912;2023-01-28T05:18:27;100384.98;;;-0.15;52.86
44351;BME280;62766;62.622;17.912;2023-01-28T05:20:55;100392.99;;;-0.14;52.95
44351;BME280;62766;62.622;17.912;2023-01-28T05:23:24;100391.86;;;-0.26;52.99
44351;BME280;62766;62.622;17.912;2023-01-28T05:25:52;100399.54;;;-0.27;53.49
44351;BME280;62766;62.622;17.912;2023-01-28T05:28:21;100404.34;;;-0.40;53.80
44351;BME280;62766;62.622;17.912;2023-01-28T05:30:49;100405.74;;;-0.43;54.27
44351;BME280;62766;62.622;17.912;2023-01-28T05:33:18;100410.87;;;-0.32;54.32
44351;BME280;62766;62.622;17.912;2023-01-28T05:35:46;100409.30;;;-0.52;54.70
44351;BME280;62766;62.622;17.912;2023-01-28T05:38:15;100417.77;;;-0.49;54.94
44351;BME280;62766;62.622;17.912;2023-01-28T05:40:43;100433.94;;;-0.47;54.79
44351;BME280;62766;62.622;17.912;2023-01-28T05:43:12;100448.63;;;-0.33;55.06
44351;BME280;62766;62.622;17.912;2023-01-28T05:45:40;100452.31;;;-0.41;54.83
44351;BME280;62766;62.622;17.912;2023-01-28T05:48:09;100445.60;;;-0.50;54.97
44351;BME280;62766;62.622;17.912;2023-01-28T05:50:39;100445.36;;;-0.64;54.85
44351;BME280;62766;62.622;17.912;2023-01-28T05:53:08;100448.66;;;-0.67;54.84
44351;BME280;62766;62.622;17.912;2023-01-28T05:55:36;100445.01;;;-0.71;55.05
44351;BME280;62766;62.622;17.912;2023-01-28T05:58:04;100449.63;;;-0.57;55.24
44351;BME280;62766;62.622;17.912;2023-01-28T06:00:33;100453.02;;;-0.73;55.32
44351;BME280;62766;62.622;17.912;2023-01-28T06:03:01;100450.18;;;-0.66;55.52
44351;BME280;62766;62.622;17.912;2023-01-28T06:05:30;100447.74;;;-0.71;55.53
44351;BME280;62766;62.622;17.912;2023-01-28T06:07:58;100442.82;;;-0.72;55.51
44351;BME280;62766;62.622;17.912;2023-01-28T06:10:27;100433.30;;;-0.82;55.51
44351;BME280;62766;62.622;17.912;2023-01-28T06:12:55;100435.21;;;-0.69;55.40
44351;BME280;62766;62.622;17.912;2023-01-28T06:15:24;100437.31;;;-0.71;55.65
44351;BME280;62766;62.622;17.912;2023-01-28T06:17:52;100443.34;;;-0.73;55.69
44351;BME280;62766;62.622;17.912;2023-01-28T06:20:21;100443.53;;;-0.75;55.97
44351;BME280;62766;62.622;17.912;2023-01-28T06:22:49;100436.84;;;-0.79;56.17
44351;BME280;62766;62.622;17.912;2023-01-28T06:25:18;100434.78;;;-0.82;56.39
44351;BME280;62766;62.622;17.912;2023-01-28T06:27:46;100438.94;;;-0.84;56.53
44351;BME280;62766;62.622;17.912;2023-01-28T06:30:15;100449.37;;;-0.87;56.63
44351;BME280;62766;62.622;17.912;2023-01-28T06:32:43;100447.97;;;-0.88;56.60
44351;BME280;62766;62.622;17.912;2023-01-28T06:35:12;100455.45;;;-0.89;56.84
44351;BME280;62766;62.622;17.912;2023-01-28T06:37:40;100454.85;;;-0.86;56.79
44351;BME280;62766;62.622;17.912;2023-01-28T06:40:11;100446.00;;;-0.91;56.80
44351;BME280;62766;62.622;17.912;2023-01-28T06:42:39;100438.97;;;-0.99;56.90
44351;BME280;62766;62.622;17.912;2023-01-28T06:45:08;100441.92;;;-0.87;57.14
44351;BME280;62766;62.622;17.912;2023-01-28T06:47:38;100444.42;;;-0.94;57.33
44351;BME280;62766;62.622;17.912;2023-01-28T06:50:08;100444.67;;;-0.97;57.28
44351;BME280;62766;62.622;17.912;2023-01-28T06:52:37;100444.81;;;-0.93;57.30
44351;BME280;62766;62.622;17.912;2023-01-28T06:55:06;100440.05;;;-0.87;57.24
44351;BME280;62766;62.622;17.912;2023-01-28T06:57:37;100435.64;;;-0.91;57.00
44351;BME280;62766;62.622;17.912;2023-01-28T07:00:08;100431.62;;;-0.83;56.94
44351;BME280;62766;62.622;17.912;2023-01-28T07:02:38;100429.61;;;-0.75;56.94
44351;BME280;62766;62.622;17.912;2023-01-28T07:05:07;100431.92;;;-0.72;56.87
44351;BME280;62766;62.622;17.912;2023-01-28T07:07:35;100427.66;;;-0.61;56.71
44351;BME280;62766;62.622;17.912;2023-01-28T07:10:04;100424.73;;;-0.63;56.85
44351;BME280;62766;62.622;17.912;2023-01-28T07:12:33;100422.76;;;-0.65;57.07
44351;BME280;62766;62.622;17.912;2023-01-28T07:15:02;100417.02;;;-0.63;57.00
44351;BME280;62766;62.622;17.912;2023-01-28T07:17:31;100417.29;;;-0.53;56.98
44351;BME280;62766;62.622;17.912;2023-01-28T07:19:59;100414.29;;;-0.53;56.92
44351;BME280;62766;62.622;17.912;2023-01-28T07:22:27;100411.61;;;-0.44;56.93
44351;BME280;62766;62.622;17.912;2023-01-28T07:24:56;100404.35;;;-0.52;56.87
44351;BME280;62766;62.622;17.912;2023-01-28T07:27:24;100405.38;;;-0.38;56.82
44351;BME280;62766;62.622;17.912;2023-01-28T07:29:53;100408.24;;;-0.42;56.73
44351;BME280;62766;62.622;17.912;2023-01-28T07:32:21;100416.86;;;-0.33;56.73
44351;BME280;62766;62.622;17.912;2023-01-28T07:34:50;100410.42;;;-0.28;56.58
44351;BME280;62766;62.622;17.912;2023-01-28T07:37:18;100410.20;;;-0.24;56.53
44351;BME280;62766;62.622;17.912;2023-01-28T07:39:47;100415.94;;;-0.23;56.48
44351;BME280;62766;62.622;17.912;2023-01-28T07:42:15;100422.07;;;-0.29;56.50
44351;BME280;62766;62.622;17.912;2023-01-28T07:44:44;100417.05;;;-0.14;56.33
44351;BME280;62766;62.622;17.912;2023-01-28T07:47:12;100415.66;;;-0.06;56.23
44351;BME280;62766;62.622;17.912;2023-01-28T07:49:41;100414.89;;;-0.16;56.10
44351;BME280;62766;62.622;17.912;2023-01-28T07:52:10;100407.49;;;-0.06;56.14
44351;BME280;62766;62.622;17.912;2023-01-28T07:54:39;100406.17;;;-0.09;56.15
44351;BME280;62766;62.622;17.912;2023-01-28T07:57:08;100407.99;;;-0.08;56.01
44351;BME280;62766;62.622;17.912;2023-01-28T07:59:36;100413.91;;;-0.11;55.96
44351;BME280;62766;62.622;17.912;2023-01-28T08:02:05;100419.82;;;-0.08;56.00
44351;BME280;62766;62.622;17.912;2023-01-28T08:04:33;100420.04;;;-0.02;56.00
44351;BME280;62766;62.622;17.912;2023-01-28T08:07:02;100409.41;;;-0.15;56.34
44351;BME280;62766;62.622;17.912;2023-01-28T08:09:30;100416.37;;;-0.20;56.32
44351;BME280;62766;62.622;17.912;2023-01-28T08:12:00;100415.29;;;-0.12;56.45
44351;BME280;62766;62.622;17.912;2023-01-28T08:14:29;100414.83;;;-0.17;56.23
44351;BME280;62766;62.622;17.912;2023-01-28T08:16:57;100410.62;;;-0.15;56.14
44351;BME280;62766;62.622;17.912;2023-01-28T08:19:26;100415.49;;;-0.10;55.91
44351;BME280;62766;62.622;17.912;2023-01-28T08:21:54;100422.45;;;-0.03;55.67
44351;BME280;62766;62.622;17.912;2023-01-28T08:24:23;100412.09;;;-0.05;55.95
44351;BME280;62766;62.622;17.912;2023-01-28T08:26:51;100413.32;;;-0.05;55.72
44351;BME280;62766;62.622;17.912;2023-01-28T08:29:20;100420.47;;;-0.00;55.59
44351;BME280;62766;62.622;17.912;2023-01-28T08:31:48;100430.80;;;0.06;55.58
44351;BME280;62766;62.622;17.912;2023-01-28T08:34:17;100433.37;;;0.19;55.50
44351;BME280;62766;62.622;17.912;2023-01-28T08:36:45;100432.18;;;0.26;55.47
44351;BME280;62766;62.622;17.912;2023-01-28T08:39:14;100421.85;;;0.29;54.91
44351;BME280;62766;62.622;17.912;2023-01-28T08:41:42;100424.77;;;0.51;54.88
44351;BME280;62766;62.622;17.912;2023-01-28T08:44:11;100431.84;;;0.54;54.58
44351;BME280;62766;62.622;17.912;2023-01-28T08:46:41;100430.29;;;0.75;53.97
44351;BME280;62766;62.622;17.912;2023-01-28T08:49:10;100428.75;;;0.65;53.93
44351;BME280;62766;62.622;17.912;2023-01-28T08:51:40;100431.75;;;0.77;53.75
44351;BME280;62766;62.622;17.912;2023-01-28T08:54:08;100437.20;;;0.98;53.33
44351;BME280;62766;62.622;17.912;2023-01-28T08:56:36;100441.63;;;0.96;53.23
44351;BME280;62766;62.622;17.912;2023-01-28T08:59:05;100443.39;;;1.01;52.64
44351;BME280;62766;62.622;17.912;2023-01-28T09:01:34;100442.32;;;1.14;52.64
44351;BME280;62766;62.622;17.912;2023-01-28T09:04:02;100436.45;;;1.07;52.53
44351;BME280;62766;62.622;17.912;2023-01-28T09:06:30;100433.97;;;1.10;52.26
44351;BME280;62766;62.622;17.912;2023-01-28T09:08:59;100425.92;;;1.23;52.11
44351;BME280;62766;62.622;17.912;2023-01-28T09:11:28;100419.29;;;1.22;51.92
44351;BME280;62766;62.622;17.912;2023-01-28T09:13:56;100414.22;;;1.24;51.69
44351;BME280;62766;62.622;17.912;2023-01-28T09:16:24;100416.15;;;1.32;51.43
44351;BME280;62766;62.622;17.912;2023-01-28T09:18:52;100419.17;;;1.14;51.33
44351;BME280;62766;62.622;17.912;2023-01-28T09:21:21;100419.61;;;1.12;51.49
44351;BME280;62766;62.622;17.912;2023-01-28T09:23:49;100418.42;;;1.30;51.41
44351;BME280;62766;62.622;17.912;2023-01-28T09:26:18;100427.23;;;1.41;51.39
44351;BME280;62766;62.622;17.912;2023-01-28T09:28:46;100428.27;;;1.31;51.48
44351;BME280;62766;62.622;17.912;2023-01-28T09:31:14;100427.88;;;1.44;51.47
44351;BME280;62766;62.622;17.912;2023-01-28T09:33:43;100419.47;;;1.40;51.47
44351;BME280;62766;62.622;17.912;2023-01-28T09:36:12;100416.62;;;1.61;51.03
44351;BME280;62766;62.622;17.912;2023-01-28T09:38:40;100417.20;;;1.58;51.06
44351;BME280;62766;62.622;17.912;2023-01-28T09:41:23;100416.30;;;1.59;50.83
44351;BME280;62766;62.622;17.912;2023-01-28T09:44:02;100401.06;;;1.62;50.52
44351;BME280;62766;62.622;17.912;2023-01-28T09:46:33;100399.76;;;1.62;50.59
44351;BME280;62766;62.622;17.912;2023-01-28T09:49:08;100398.57;;;1.56;50.65
44351;BME280;62766;62.622;17.912;2023-01-28T09:51:42;100397.98;;;1.64;50.72
44351;BME280;62766;62.622;17.912;2023-01-28T09:54:22;100393.19;;;1.56;50.65
44351;BME280;62766;62.622;17.912;2023-01-28T09:56:55;100400.88;;;1.51;50.32
44351;BME280;62766;62.622;17.912;2023-01-28T09:59:29;100410.71;;;1.45;50.31
44351;BME280;62766;62.622;17.912;2023-01-28T10:02:02;100410.81;;;1.51;50.31
44351;BME280;62766;62.622;17.912;2023-01-28T10:04:42;100415.82;;;1.38;50.34
44351;BME280;62766;62.622;17.912;2023-01-28T10:07:24;100413.22;;;1.42;50.46
44351;BME280;62766;62.622;17.912;2023-01-28T10:10:02;100398.78;;;1.35;50.66
44351;BME280;62766;62.622;17.912;2023-01-28T10:12:46;100390.00;;;1.28;50.77
44351;BME280;62766;62.622;17.912;2023-01-28T10:15:27;100380.91;;;1.40;50.73
44351;BME280;62766;62.622;17.912;2023-01-28T10:18:01;100368.02;;;1.21;50.89
44351;BME280;62766;62.622;17.912;2023-01-28T10:20:34;100355.31;;;1.18;50.77
44351;BME280;62766;62.622;17.912;2023-01-28T10:23:10;100353.64;;;1.24;50.82
44351;BME280;62766;62.622;17.912;2023-01-28T10:25:40;100349.82;;;1.30;50.79
44351;BME280;62766;62.622;17.912;2023-01-28T10:28:17;100352.61;;;1.47;50.74
44351;BME280;62766;62.622;17.912;2023-01-28T10:30:46;100345.74;;;1.39;50.79
44351;BME280;62766;62.622;17.912;2023-01-28T10:33:19;100344.74;;;1.47;50.58
44351;BME280;62766;62.622;17.912;2023-01-28T10:35:50;100337.72;;;1.53;50.43
44351;BME280;62766;62.622;17.912;2023-01-28T10:38:21;100339.68;;;1.70;50.38
44351;BME280;62766;62.622;17.912;2023-01-28T10:40:50;100338.66;;;1.68;50.45
44351;BME280;62766;62.622;17.912;2023-01-28T10:43:22;100334.03;;;1.67;50.40
44351;BME280;62766;62.622;17.912;2023-01-28T10:45:56;100333.14;;;1.66;50.53
44351;BME280;62766;62.622;17.912;2023-01-28T10:48:29;100324.15;;;1.75;50.34
44351;BME280;62766;62.622;17.912;2023-01-28T10:51:01;100322.68;;;1.91;50.13
44351;BME280;62766;62.622;17.912;2023-01-28T10:53:34;100326.95;;;1.92;49.80
44351;BME280;62766;62.622;17.912;2023-01-28T10:56:06;100332.97;;;2.05;49.62
44351;BME280;62766;62.622;17.912;2023-01-28T10:58:46;100335.02;;;2.06;49.50
44351;BME280;62766;62.622;17.912;2023-01-28T11:03:22;100334.66;;;1.95;49.50
44351;BME280;62766;62.622;17.912;2023-01-28T11:05:51;100334.98;;;2.13;49.39
44351;BME280;62766;62.622;17.912;2023-01-28T11:08:22;100336.88;;;2.06;49.20
44351;BME280;62766;62.622;17.912;2023-01-28T11:10:52;100337.03;;;2.21;49.14
44351;BME280;62766;62.622;17.912;2023-01-28T11:13:23;100327.46;;;2.29;48.85
44351;BME280;62766;62.622;17.912;2023-01-28T11:15:53;100330.04;;;2.41;48.89
44351;BME280;62766;62.622;17.912;2023-01-28T11:18:27;100325.06;;;2.34;48.95
44351;BME280;62766;62.622;17.912;2023-01-28T11:20:58;100321.45;;;2.26;48.88
44351;BME280;62766;62.622;17.912;2023-01-28T11:23:30;100320.77;;;2.46;48.94
44351;BME280;62766;62.622;17.912;2023-01-28T11:26:02;100307.90;;;2.34;48.57
44351;BME280;62766;62.622;17.912;2023-01-28T11:28:31;100311.52;;;2.48;48.39
44351;BME280;62766;62.622;17.912;2023-01-28T11:31:02;100308.98;;;2.48;48.68
44351;BME280;62766;62.622;17.912;2023-01-28T11:33:35;100307.43;;;2.37;48.33
44351;BME280;62766;62.622;17.912;2023-01-28T11:36:06;100311.24;;;2.50;48.31
44351;BME280;62766;62.622;17.912;2023-01-28T11:38:35;100312.81;;;2.57;48.57
44351;BME280;62766;62.622;17.912;2023-01-28T11:41:04;100315.22;;;2.44;48.67
44351;BME280;62766;62.622;17.912;2023-01-28T11:43:32;100315.10;;;2.56;48.56
44351;BME280;62766;62.622;17.912;2023-01-28T11:46:13;100317.24;;;2.64;48.38
44351;BME280;62766;62.622;17.912;2023-01-28T11:48:51;100308.35;;;2.63;48.13
44351;BME280;62766;62.622;17.912;2023-01-28T11:51:31;100307.59;;;2.74;48.13
44351;BME280;62766;62.622;17.912;2023-01-28T11:54:17;100315.26;;;2.63;48.29
44351;BME280;62766;62.622;17.912;2023-01-28T11:57:08;100313.27;;;2.65;48.14
44351;BME280;62766;62.622;17.912;2023-01-28T11:59:53;100315.07;;;2.56;48.42
44351;BME280;62766;62.622;17.912;2023-01-28T12:02:38;100307.58;;;2.82;47.97
44351;BME280;62766;62.622;17.912;2023-01-28T12:05:23;100309.22;;;2.84;47.61
44351;BME280;62766;62.622;17.912;2023-01-28T12:08:05;100311.17;;;2.95;47.62
44351;BME280;62766;62.622;17.912;2023-01-28T12:10:42;100319.03;;;2.91;47.55
44351;BME280;62766;62.622;17.912;2023-01-28T12:13:28;100313.78;;;2.95;47.34
44351;BME280;62766;62.622;17.912;2023-01-28T12:16:12;100318.14;;;2.86;47.19
44351;BME280;62766;62.622;17.912;2023-01-28T12:19:02;100312.32;;;2.89;47.44
44351;BME280;62766;62.622;17.912;2023-01-28T12:21:46;100318.31;;;2.82;47.52
44351;BME280;62766;62.622;17.912;2023-01-28T12:24:29;100319.94;;;2.84;47.79
44351;BME280;62766;62.622;17.912;2023-01-28T12:27:09;100323.89;;;2.88;47.09
44351;BME280;62766;62.622;17.912;2023-01-28T12:29:49;100321.18;;;2.86;47.37
44351;BME280;62766;62.622;17.912;2023-01-28T12:32:31;100316.09;;;2.95;47.61
44351;BME280;62766;62.622;17.912;2023-01-28T12:35:21;100309.14;;;2.93;47.11
44351;BME280;62766;62.622;17.912;2023-01-28T12:37:58;100294.29;;;2.92;46.72
44351;BME280;62766;62.622;17.912;2023-01-28T12:40:46;100285.76;;;2.79;47.16
44351;BME280;62766;62.622;17.912;2023-01-28T12:43:21;100297.19;;;2.95;46.99
44351;BME280;62766;62.622;17.912;2023-01-28T12:45:55;100303.08;;;2.93;46.96
44351;BME280;62766;62.622;17.912;2023-01-28T12:48:29;100306.11;;;3.07;46.94
44351;BME280;62766;62.622;17.912;2023-01-28T12:51:03;100305.66;;;3.05;46.74
44351;BME280;62766;62.622;17.912;2023-01-28T12:53:39;100298.88;;;2.99;46.45
44351;BME280;62766;62.622;17.912;2023-01-28T12:56:14;100299.48;;;3.04;46.71
44351;BME280;62766;62.622;17.912;2023-01-28T12:58:49;100299.32;;;3.14;46.50
44351;BME280;62766;62.622;17.912;2023-01-28T13:01:24;100302.05;;;3.16;46.47
44351;BME280;62766;62.622;17.912;2023-01-28T13:03:59;100304.39;;;3.13;46.44
44351;BME280;62766;62.622;17.912;2023-01-28T13:06:32;100301.10;;;3.20;46.46
44351;BME280;62766;62.622;17.912;2023-01-28T13:09:12;100294.46;;;3.13;46.29